sensor_id;sensor_type;location;lat;lon;timestamp;P1;durP1;ratioP1;P2;durP2;ratioP2
18933;SDS011;9599;53.706;10.384;2022-11-06T00:00:20;6.87;;;5.30;;
18933;SDS011;9599;53.706;10.384;2022-11-06T00:02:48;8.47;;;5.67;;
18933;SDS011;9599;53.706;10.384;2022-11-06T00:05:16;7.50;;;5.40;;
18933;SDS011;9599;53.706;10.384;2022-11-06T00:08:02;7.67;;;4.93;;
18933;SDS011;9599;53.706;10.384;2022-11-06T00:10:30;6.77;;;5.30;;
18933;SDS011;9599;53.706;10.384;2022-11-06T00:12:58;11.00;;;5.50;;
18933;SDS011;9599;53.706;10.384;2022-11-06T00:15:28;8.20;;;5.10;;
18933;SDS011;9599;53.706;10.384;2022-11-06T00:17:56;7.10;;;4.80;;
18933;SDS011;9599;53.706;10.384;2022-11-06T00:20:24;8.63;;;5.00;;
18933;SDS011;9599;53.706;10.384;2022-11-06T00:22:52;11.70;;;5.20;;
18933;SDS011;9599;53.706;10.384;2022-11-06T00:25:20;7.03;;;5.30;;
18933;SDS011;9599;53.706;10.384;2022-11-06T00:27:48;7.93;;;4.87;;
18933;SDS011;9599;53.706;10.384;2022-11-06T00:30:15;6.60;;;4.67;;
18933;SDS011;9599;53.706;10.384;2022-11-06T00:32:47;8.30;;;4.90;;
18933;SDS011;9599;53.706;10.384;2022-11-06T00:35:15;8.87;;;5.13;;
18933;SDS011;9599;53.706;10.384;2022-11-06T00:37:43;8.80;;;4.93;;
18933;SDS011;9599;53.706;10.384;2022-11-06T00:40:11;10.77;;;5.20;;
18933;SDS011;9599;53.706;10.384;2022-11-06T00:42:40;7.73;;;4.77;;
18933;SDS011;9599;53.706;10.384;2022-11-06T00:45:08;7.37;;;4.63;;
18933;SDS011;9599;53.706;10.384;2022-11-06T00:47:36;8.03;;;4.80;;
18933;SDS011;9599;53.706;10.384;2022-11-06T00:50:06;7.90;;;4.83;;
18933;SDS011;9599;53.706;10.384;2022-11-06T00:52:34;6.60;;;4.80;;
18933;SDS011;9599;53.706;10.384;2022-11-06T00:55:02;6.30;;;4.67;;
18933;SDS011;9599;53.706;10.384;2022-11-06T00:57:31;6.40;;;4.63;;
18933;SDS011;9599;53.706;10.384;2022-11-06T00:59:59;8.47;;;4.70;;
18933;SDS011;9599;53.706;10.384;2022-11-06T01:02:26;7.27;;;4.70;;
18933;SDS011;9599;53.706;10.384;2022-11-06T01:04:55;7.93;;;4.43;;
18933;SDS011;9599;53.706;10.384;2022-11-06T01:07:24;6.07;;;4.30;;
18933;SDS011;9599;53.706;10.384;2022-11-06T01:09:52;7.80;;;4.37;;
18933;SDS011;9599;53.706;10.384;2022-11-06T01:12:20;6.77;;;4.53;;
18933;SDS011;9599;53.706;10.384;2022-11-06T01:14:47;5.53;;;4.13;;
18933;SDS011;9599;53.706;10.384;2022-11-06T01:17:16;7.53;;;4.40;;
18933;SDS011;9599;53.706;10.384;2022-11-06T01:19:43;10.43;;;4.30;;
18933;SDS011;9599;53.706;10.384;2022-11-06T01:22:12;5.40;;;4.27;;
18933;SDS011;9599;53.706;10.384;2022-11-06T01:24:41;9.20;;;4.60;;
18933;SDS011;9599;53.706;10.384;2022-11-06T01:27:09;7.20;;;4.20;;
18933;SDS011;9599;53.706;10.384;2022-11-06T01:29:52;8.07;;;4.20;;
18933;SDS011;9599;53.706;10.384;2022-11-06T01:32:20;6.53;;;4.50;;
18933;SDS011;9599;53.706;10.384;2022-11-06T01:34:48;8.17;;;4.30;;
18933;SDS011;9599;53.706;10.384;2022-11-06T01:37:16;5.43;;;4.33;;
18933;SDS011;9599;53.706;10.384;2022-11-06T01:39:47;9.20;;;4.93;;
18933;SDS011;9599;53.706;10.384;2022-11-06T01:42:15;7.57;;;4.07;;
18933;SDS011;9599;53.706;10.384;2022-11-06T01:47:52;6.10;;;4.20;;
18933;SDS011;9599;53.706;10.384;2022-11-06T01:50:20;6.83;;;4.30;;
18933;SDS011;9599;53.706;10.384;2022-11-06T01:52:48;5.80;;;4.47;;
18933;SDS011;9599;53.706;10.384;2022-11-06T01:55:20;6.63;;;4.20;;
18933;SDS011;9599;53.706;10.384;2022-11-06T01:57:51;8.13;;;4.00;;
18933;SDS011;9599;53.706;10.384;2022-11-06T02:00:20;6.30;;;4.47;;
18933;SDS011;9599;53.706;10.384;2022-11-06T02:02:48;6.03;;;4.30;;
18933;SDS011;9599;53.706;10.384;2022-11-06T02:05:17;6.50;;;4.00;;
18933;SDS011;9599;53.706;10.384;2022-11-06T02:07:45;7.63;;;4.10;;
18933;SDS011;9599;53.706;10.384;2022-11-06T02:10:14;5.13;;;3.70;;
18933;SDS011;9599;53.706;10.384;2022-11-06T02:12:46;6.50;;;3.97;;
18933;SDS011;9599;53.706;10.384;2022-11-06T02:15:31;8.20;;;4.47;;
18933;SDS011;9599;53.706;10.384;2022-11-06T02:18:19;6.93;;;4.27;;
18933;SDS011;9599;53.706;10.384;2022-11-06T02:21:13;6.13;;;4.10;;
18933;SDS011;9599;53.706;10.384;2022-11-06T02:24:04;6.37;;;4.30;;
18933;SDS011;9599;53.706;10.384;2022-11-06T02:26:48;5.97;;;4.30;;
18933;SDS011;9599;53.706;10.384;2022-11-06T02:29:28;7.50;;;4.50;;
18933;SDS011;9599;53.706;10.384;2022-11-06T02:32:01;6.20;;;4.07;;
18933;SDS011;9599;53.706;10.384;2022-11-06T02:34:34;6.93;;;4.47;;
18933;SDS011;9599;53.706;10.384;2022-11-06T02:37:03;6.03;;;4.17;;
18933;SDS011;9599;53.706;10.384;2022-11-06T02:39:36;6.13;;;4.07;;
18933;SDS011;9599;53.706;10.384;2022-11-06T02:42:08;7.13;;;4.33;;
18933;SDS011;9599;53.706;10.384;2022-11-06T02:44:41;7.33;;;4.63;;
18933;SDS011;9599;53.706;10.384;2022-11-06T02:47:11;7.10;;;4.37;;
18933;SDS011;9599;53.706;10.384;2022-11-06T02:49:41;6.20;;;4.37;;
18933;SDS011;9599;53.706;10.384;2022-11-06T02:52:14;6.63;;;4.17;;
18933;SDS011;9599;53.706;10.384;2022-11-06T02:54:48;5.03;;;3.73;;
18933;SDS011;9599;53.706;10.384;2022-11-06T02:57:21;4.63;;;4.00;;
18933;SDS011;9599;53.706;10.384;2022-11-06T02:59:54;6.30;;;4.00;;
18933;SDS011;9599;53.706;10.384;2022-11-06T03:02:28;6.23;;;4.20;;
18933;SDS011;9599;53.706;10.384;2022-11-06T03:05:01;6.87;;;4.20;;
18933;SDS011;9599;53.706;10.384;2022-11-06T03:07:33;8.27;;;4.13;;
18933;SDS011;9599;53.706;10.384;2022-11-06T03:10:05;6.10;;;3.60;;
18933;SDS011;9599;53.706;10.384;2022-11-06T03:12:37;9.20;;;4.27;;
18933;SDS011;9599;53.706;10.384;2022-11-06T03:15:13;7.77;;;4.30;;
18933;SDS011;9599;53.706;10.384;2022-11-06T03:17:46;10.47;;;4.70;;
18933;SDS011;9599;53.706;10.384;2022-11-06T03:20:19;6.73;;;4.30;;
18933;SDS011;9599;53.706;10.384;2022-11-06T03:22:53;5.23;;;4.10;;
18933;SDS011;9599;53.706;10.384;2022-11-06T03:25:25;6.27;;;4.10;;
18933;SDS011;9599;53.706;10.384;2022-11-06T03:27:59;5.97;;;4.50;;
18933;SDS011;9599;53.706;10.384;2022-11-06T03:30:31;6.33;;;4.13;;
18933;SDS011;9599;53.706;10.384;2022-11-06T03:33:04;6.63;;;3.93;;
18933;SDS011;9599;53.706;10.384;2022-11-06T03:35:37;5.97;;;3.90;;
18933;SDS011;9599;53.706;10.384;2022-11-06T03:38:09;5.87;;;4.47;;
18933;SDS011;9599;53.706;10.384;2022-11-06T03:40:43;6.00;;;4.17;;
18933;SDS011;9599;53.706;10.384;2022-11-06T03:43:15;8.40;;;4.00;;
18933;SDS011;9599;53.706;10.384;2022-11-06T03:45:47;6.33;;;4.50;;
18933;SDS011;9599;53.706;10.384;2022-11-06T03:48:18;6.33;;;4.13;;
18933;SDS011;9599;53.706;10.384;2022-11-06T03:50:53;5.87;;;4.17;;
18933;SDS011;9599;53.706;10.384;2022-11-06T03:53:27;7.50;;;3.93;;
18933;SDS011;9599;53.706;10.384;2022-11-06T03:56:01;5.97;;;4.10;;
18933;SDS011;9599;53.706;10.384;2022-11-06T03:58:35;9.23;;;3.77;;
18933;SDS011;9599;53.706;10.384;2022-11-06T04:01:07;6.20;;;4.37;;
18933;SDS011;9599;53.706;10.384;2022-11-06T04:03:38;5.97;;;4.10;;
18933;SDS011;9599;53.706;10.384;2022-11-06T04:06:12;6.63;;;3.77;;
18933;SDS011;9599;53.706;10.384;2022-11-06T04:08:43;4.77;;;3.73;;
18933;SDS011;9599;53.706;10.384;2022-11-06T04:11:32;8.47;;;4.23;;
18933;SDS011;9599;53.706;10.384;2022-11-06T04:14:21;7.97;;;3.80;;
18933;SDS011;9599;53.706;10.384;2022-11-06T04:16:52;6.10;;;4.10;;
18933;SDS011;9599;53.706;10.384;2022-11-06T04:19:24;6.60;;;3.70;;
18933;SDS011;9599;53.706;10.384;2022-11-06T04:21:55;6.30;;;4.23;;
18933;SDS011;9599;53.706;10.384;2022-11-06T04:24:42;7.77;;;3.77;;
18933;SDS011;9599;53.706;10.384;2022-11-06T04:27:35;7.87;;;3.83;;
18933;SDS011;9599;53.706;10.384;2022-11-06T04:30:14;7.87;;;3.67;;
18933;SDS011;9599;53.706;10.384;2022-11-06T04:32:46;5.90;;;4.20;;
18933;SDS011;9599;53.706;10.384;2022-11-06T04:35:40;10.67;;;3.60;;
18933;SDS011;9599;53.706;10.384;2022-11-06T04:38:16;7.13;;;3.70;;
18933;SDS011;9599;53.706;10.384;2022-11-06T04:40:56;5.67;;;3.63;;
18933;SDS011;9599;53.706;10.384;2022-11-06T04:43:34;6.67;;;4.07;;
18933;SDS011;9599;53.706;10.384;2022-11-06T04:46:09;6.77;;;3.40;;
18933;SDS011;9599;53.706;10.384;2022-11-06T04:48:41;4.90;;;3.80;;
18933;SDS011;9599;53.706;10.384;2022-11-06T04:51:11;5.73;;;3.73;;
18933;SDS011;9599;53.706;10.384;2022-11-06T04:53:41;6.53;;;3.63;;
18933;SDS011;9599;53.706;10.384;2022-11-06T04:56:10;4.90;;;3.43;;
18933;SDS011;9599;53.706;10.384;2022-11-06T04:58:46;9.63;;;4.17;;
18933;SDS011;9599;53.706;10.384;2022-11-06T05:01:15;4.37;;;3.57;;
18933;SDS011;9599;53.706;10.384;2022-11-06T05:03:43;4.57;;;3.57;;
18933;SDS011;9599;53.706;10.384;2022-11-06T05:06:11;7.53;;;3.70;;
18933;SDS011;9599;53.706;10.384;2022-11-06T05:08:39;7.03;;;3.63;;
18933;SDS011;9599;53.706;10.384;2022-11-06T05:11:07;6.73;;;3.87;;
18933;SDS011;9599;53.706;10.384;2022-11-06T05:13:35;5.57;;;3.60;;
18933;SDS011;9599;53.706;10.384;2022-11-06T05:16:04;6.03;;;3.50;;
18933;SDS011;9599;53.706;10.384;2022-11-06T05:18:33;5.40;;;3.70;;
18933;SDS011;9599;53.706;10.384;2022-11-06T05:21:02;8.57;;;3.70;;
18933;SDS011;9599;53.706;10.384;2022-11-06T05:23:48;5.40;;;3.50;;
18933;SDS011;9599;53.706;10.384;2022-11-06T05:26:16;7.07;;;3.60;;
18933;SDS011;9599;53.706;10.384;2022-11-06T05:28:43;5.50;;;3.80;;
18933;SDS011;9599;53.706;10.384;2022-11-06T05:31:11;7.10;;;3.70;;
18933;SDS011;9599;53.706;10.384;2022-11-06T05:33:40;9.87;;;4.07;;
18933;SDS011;9599;53.706;10.384;2022-11-06T05:36:08;5.43;;;3.57;;
18933;SDS011;9599;53.706;10.384;2022-11-06T05:38:36;5.10;;;3.53;;
18933;SDS011;9599;53.706;10.384;2022-11-06T05:41:04;5.23;;;3.50;;
18933;SDS011;9599;53.706;10.384;2022-11-06T05:43:32;7.57;;;3.87;;
18933;SDS011;9599;53.706;10.384;2022-11-06T05:46:00;6.97;;;3.37;;
18933;SDS011;9599;53.706;10.384;2022-11-06T05:48:28;6.87;;;3.90;;
18933;SDS011;9599;53.706;10.384;2022-11-06T05:51:00;4.83;;;3.67;;
18933;SDS011;9599;53.706;10.384;2022-11-06T05:53:28;5.73;;;3.57;;
18933;SDS011;9599;53.706;10.384;2022-11-06T05:55:56;5.83;;;3.17;;
18933;SDS011;9599;53.706;10.384;2022-11-06T05:58:25;6.03;;;3.30;;
18933;SDS011;9599;53.706;10.384;2022-11-06T06:00:53;6.80;;;3.67;;
18933;SDS011;9599;53.706;10.384;2022-11-06T06:03:22;4.43;;;3.57;;
18933;SDS011;9599;53.706;10.384;2022-11-06T06:05:51;5.23;;;3.47;;
18933;SDS011;9599;53.706;10.384;2022-11-06T06:08:20;7.53;;;3.60;;
18933;SDS011;9599;53.706;10.384;2022-11-06T06:10:48;7.20;;;3.50;;
18933;SDS011;9599;53.706;10.384;2022-11-06T06:13:16;6.33;;;3.90;;
18933;SDS011;9599;53.706;10.384;2022-11-06T06:15:43;6.23;;;3.50;;
18933;SDS011;9599;53.706;10.384;2022-11-06T06:18:12;5.83;;;3.60;;
18933;SDS011;9599;53.706;10.384;2022-11-06T06:20:40;7.10;;;3.30;;
18933;SDS011;9599;53.706;10.384;2022-11-06T06:23:08;4.40;;;3.17;;
18933;SDS011;9599;53.706;10.384;2022-11-06T06:25:37;5.53;;;3.50;;
18933;SDS011;9599;53.706;10.384;2022-11-06T06:28:05;8.63;;;3.70;;
18933;SDS011;9599;53.706;10.384;2022-11-06T06:30:33;6.87;;;3.63;;
18933;SDS011;9599;53.706;10.384;2022-11-06T06:33:02;6.67;;;3.70;;
18933;SDS011;9599;53.706;10.384;2022-11-06T06:35:32;5.93;;;3.47;;
18933;SDS011;9599;53.706;10.384;2022-11-06T06:38:00;5.20;;;3.47;;
18933;SDS011;9599;53.706;10.384;2022-11-06T06:40:28;4.90;;;3.50;;
18933;SDS011;9599;53.706;10.384;2022-11-06T06:42:57;5.67;;;3.47;;
18933;SDS011;9599;53.706;10.384;2022-11-06T06:45:25;5.23;;;3.37;;
18933;SDS011;9599;53.706;10.384;2022-11-06T06:47:53;5.37;;;3.50;;
18933;SDS011;9599;53.706;10.384;2022-11-06T06:50:21;5.87;;;3.30;;
18933;SDS011;9599;53.706;10.384;2022-11-06T06:52:49;4.43;;;3.30;;
18933;SDS011;9599;53.706;10.384;2022-11-06T06:55:21;6.20;;;3.60;;
18933;SDS011;9599;53.706;10.384;2022-11-06T06:57:54;5.77;;;3.20;;
18933;SDS011;9599;53.706;10.384;2022-11-06T07:00:24;7.40;;;3.37;;
18933;SDS011;9599;53.706;10.384;2022-11-06T07:02:53;6.23;;;3.40;;
18933;SDS011;9599;53.706;10.384;2022-11-06T07:05:21;4.33;;;3.40;;
18933;SDS011;9599;53.706;10.384;2022-11-06T07:07:49;5.60;;;3.37;;
18933;SDS011;9599;53.706;10.384;2022-11-06T07:10:17;4.60;;;3.40;;
18933;SDS011;9599;53.706;10.384;2022-11-06T07:12:45;5.10;;;3.33;;
18933;SDS011;9599;53.706;10.384;2022-11-06T07:15:14;5.67;;;3.70;;
18933;SDS011;9599;53.706;10.384;2022-11-06T07:17:42;6.33;;;3.07;;
18933;SDS011;9599;53.706;10.384;2022-11-06T07:20:10;7.43;;;3.20;;
18933;SDS011;9599;53.706;10.384;2022-11-06T07:22:38;6.60;;;3.23;;
18933;SDS011;9599;53.706;10.384;2022-11-06T07:25:06;7.20;;;3.30;;
18933;SDS011;9599;53.706;10.384;2022-11-06T07:27:35;3.63;;;2.83;;
18933;SDS011;9599;53.706;10.384;2022-11-06T07:30:03;5.93;;;3.20;;
18933;SDS011;9599;53.706;10.384;2022-11-06T07:32:32;5.70;;;3.00;;
18933;SDS011;9599;53.706;10.384;2022-11-06T07:35:00;3.00;;;2.70;;
18933;SDS011;9599;53.706;10.384;2022-11-06T07:37:28;5.57;;;3.13;;
18933;SDS011;9599;53.706;10.384;2022-11-06T07:39:56;3.67;;;2.67;;
18933;SDS011;9599;53.706;10.384;2022-11-06T07:42:24;4.20;;;3.07;;
18933;SDS011;9599;53.706;10.384;2022-11-06T07:45:00;5.67;;;3.07;;
18933;SDS011;9599;53.706;10.384;2022-11-06T07:47:28;4.43;;;3.10;;
18933;SDS011;9599;53.706;10.384;2022-11-06T07:49:57;6.57;;;3.37;;
18933;SDS011;9599;53.706;10.384;2022-11-06T07:52:26;4.53;;;3.17;;
18933;SDS011;9599;53.706;10.384;2022-11-06T07:54:54;4.33;;;3.30;;
18933;SDS011;9599;53.706;10.384;2022-11-06T07:57:22;7.30;;;3.20;;
18933;SDS011;9599;53.706;10.384;2022-11-06T07:59:50;6.10;;;4.07;;
18933;SDS011;9599;53.706;10.384;2022-11-06T08:02:18;6.93;;;4.53;;
18933;SDS011;9599;53.706;10.384;2022-11-06T08:04:46;6.67;;;3.17;;
18933;SDS011;9599;53.706;10.384;2022-11-06T08:07:15;6.00;;;3.90;;
18933;SDS011;9599;53.706;10.384;2022-11-06T08:09:43;7.27;;;3.10;;
18933;SDS011;9599;53.706;10.384;2022-11-06T08:12:11;6.43;;;3.60;;
18933;SDS011;9599;53.706;10.384;2022-11-06T08:14:40;7.67;;;3.63;;
18933;SDS011;9599;53.706;10.384;2022-11-06T08:17:08;6.83;;;3.20;;
18933;SDS011;9599;53.706;10.384;2022-11-06T08:19:35;5.37;;;3.30;;
18933;SDS011;9599;53.706;10.384;2022-11-06T08:22:03;7.50;;;3.10;;
18933;SDS011;9599;53.706;10.384;2022-11-06T08:24:33;6.30;;;3.67;;
18933;SDS011;9599;53.706;10.384;2022-11-06T08:27:00;5.03;;;3.07;;
18933;SDS011;9599;53.706;10.384;2022-11-06T08:29:28;4.67;;;2.97;;
18933;SDS011;9599;53.706;10.384;2022-11-06T08:31:56;3.67;;;3.13;;
18933;SDS011;9599;53.706;10.384;2022-11-06T08:34:24;3.93;;;2.93;;
18933;SDS011;9599;53.706;10.384;2022-11-06T08:36:52;5.57;;;3.00;;
18933;SDS011;9599;53.706;10.384;2022-11-06T08:39:20;5.50;;;2.90;;
18933;SDS011;9599;53.706;10.384;2022-11-06T08:41:49;6.63;;;3.67;;
18933;SDS011;9599;53.706;10.384;2022-11-06T08:44:17;8.47;;;3.57;;
18933;SDS011;9599;53.706;10.384;2022-11-06T08:46:47;6.17;;;3.00;;
18933;SDS011;9599;53.706;10.384;2022-11-06T08:49:17;3.87;;;2.93;;
18933;SDS011;9599;53.706;10.384;2022-11-06T08:51:45;4.50;;;3.03;;
18933;SDS011;9599;53.706;10.384;2022-11-06T08:54:13;5.07;;;2.87;;
18933;SDS011;9599;53.706;10.384;2022-11-06T08:56:41;4.27;;;3.03;;
18933;SDS011;9599;53.706;10.384;2022-11-06T08:59:10;4.47;;;2.80;;
18933;SDS011;9599;53.706;10.384;2022-11-06T09:01:38;6.10;;;2.90;;
18933;SDS011;9599;53.706;10.384;2022-11-06T09:04:06;5.37;;;2.63;;
18933;SDS011;9599;53.706;10.384;2022-11-06T09:06:34;5.00;;;2.80;;
18933;SDS011;9599;53.706;10.384;2022-11-06T09:09:02;3.70;;;2.80;;
18933;SDS011;9599;53.706;10.384;2022-11-06T09:11:30;6.47;;;2.60;;
18933;SDS011;9599;53.706;10.384;2022-11-06T09:13:58;4.17;;;2.90;;
18933;SDS011;9599;53.706;10.384;2022-11-06T09:16:28;3.47;;;2.27;;
18933;SDS011;9599;53.706;10.384;2022-11-06T09:18:56;4.60;;;2.67;;
18933;SDS011;9599;53.706;10.384;2022-11-06T09:21:24;6.13;;;2.60;;
18933;SDS011;9599;53.706;10.384;2022-11-06T09:23:52;5.53;;;2.80;;
18933;SDS011;9599;53.706;10.384;2022-11-06T09:26:20;7.47;;;2.83;;
18933;SDS011;9599;53.706;10.384;2022-11-06T09:28:47;5.37;;;2.70;;
18933;SDS011;9599;53.706;10.384;2022-11-06T09:31:16;5.13;;;2.77;;
18933;SDS011;9599;53.706;10.384;2022-11-06T09:33:46;4.47;;;2.40;;
18933;SDS011;9599;53.706;10.384;2022-11-06T09:36:13;4.77;;;2.47;;
18933;SDS011;9599;53.706;10.384;2022-11-06T09:38:41;6.10;;;2.50;;
18933;SDS011;9599;53.706;10.384;2022-11-06T09:41:11;3.27;;;2.20;;
18933;SDS011;9599;53.706;10.384;2022-11-06T09:43:51;3.40;;;2.43;;
18933;SDS011;9599;53.706;10.384;2022-11-06T09:46:32;4.43;;;2.77;;
18933;SDS011;9599;53.706;10.384;2022-11-06T09:49:07;4.60;;;2.73;;
18933;SDS011;9599;53.706;10.384;2022-11-06T09:51:44;4.30;;;2.40;;
18933;SDS011;9599;53.706;10.384;2022-11-06T09:54:18;6.40;;;2.87;;
18933;SDS011;9599;53.706;10.384;2022-11-06T09:56:53;4.27;;;2.43;;
18933;SDS011;9599;53.706;10.384;2022-11-06T09:59:25;3.83;;;2.43;;
18933;SDS011;9599;53.706;10.384;2022-11-06T10:01:54;6.20;;;3.10;;
18933;SDS011;9599;53.706;10.384;2022-11-06T10:04:30;5.07;;;3.33;;
18933;SDS011;9599;53.706;10.384;2022-11-06T10:07:08;4.77;;;3.27;;
18933;SDS011;9599;53.706;10.384;2022-11-06T10:09:47;4.03;;;2.50;;
18933;SDS011;9599;53.706;10.384;2022-11-06T10:12:17;4.43;;;2.70;;
18933;SDS011;9599;53.706;10.384;2022-11-06T10:14:55;6.43;;;2.97;;
18933;SDS011;9599;53.706;10.384;2022-11-06T10:17:37;4.43;;;2.53;;
18933;SDS011;9599;53.706;10.384;2022-11-06T10:20:17;10.43;;;6.33;;
18933;SDS011;9599;53.706;10.384;2022-11-06T10:22:59;6.20;;;3.17;;
18933;SDS011;9599;53.706;10.384;2022-11-06T10:28:30;4.37;;;2.33;;
18933;SDS011;9599;53.706;10.384;2022-11-06T10:31:10;5.37;;;2.40;;
18933;SDS011;9599;53.706;10.384;2022-11-06T10:33:47;5.10;;;2.50;;
18933;SDS011;9599;53.706;10.384;2022-11-06T10:36:25;4.20;;;2.33;;
18933;SDS011;9599;53.706;10.384;2022-11-06T10:38:57;5.53;;;2.80;;
18933;SDS011;9599;53.706;10.384;2022-11-06T10:41:28;6.03;;;2.43;;
18933;SDS011;9599;53.706;10.384;2022-11-06T10:43:59;4.87;;;2.00;;
18933;SDS011;9599;53.706;10.384;2022-11-06T10:46:32;6.17;;;3.27;;
18933;SDS011;9599;53.706;10.384;2022-11-06T10:49:03;2.70;;;2.20;;
18933;SDS011;9599;53.706;10.384;2022-11-06T10:51:46;3.83;;;2.10;;
18933;SDS011;9599;53.706;10.384;2022-11-06T10:54:28;5.10;;;2.10;;
18933;SDS011;9599;53.706;10.384;2022-11-06T10:57:08;4.03;;;2.00;;
18933;SDS011;9599;53.706;10.384;2022-11-06T10:59:46;4.07;;;2.00;;
18933;SDS011;9599;53.706;10.384;2022-11-06T11:02:19;5.33;;;2.30;;
18933;SDS011;9599;53.706;10.384;2022-11-06T11:04:50;3.57;;;2.07;;
18933;SDS011;9599;53.706;10.384;2022-11-06T11:07:24;3.50;;;2.40;;
18933;SDS011;9599;53.706;10.384;2022-11-06T11:09:56;3.50;;;1.97;;
18933;SDS011;9599;53.706;10.384;2022-11-06T11:12:24;3.83;;;2.20;;
18933;SDS011;9599;53.706;10.384;2022-11-06T11:15:04;3.83;;;2.30;;
18933;SDS011;9599;53.706;10.384;2022-11-06T11:17:38;4.07;;;2.10;;
18933;SDS011;9599;53.706;10.384;2022-11-06T11:23:05;2.43;;;1.90;;
18933;SDS011;9599;53.706;10.384;2022-11-06T11:25:38;4.60;;;2.23;;
18933;SDS011;9599;53.706;10.384;2022-11-06T11:28:12;3.97;;;2.20;;
18933;SDS011;9599;53.706;10.384;2022-11-06T11:30:58;4.23;;;2.60;;
18933;SDS011;9599;53.706;10.384;2022-11-06T11:33:31;5.97;;;2.23;;
18933;SDS011;9599;53.706;10.384;2022-11-06T11:36:00;4.60;;;2.70;;
18933;SDS011;9599;53.706;10.384;2022-11-06T11:38:32;3.80;;;2.23;;
18933;SDS011;9599;53.706;10.384;2022-11-06T11:41:06;3.53;;;2.10;;
18933;SDS011;9599;53.706;10.384;2022-11-06T11:43:35;4.37;;;2.20;;
18933;SDS011;9599;53.706;10.384;2022-11-06T11:46:04;3.50;;;2.13;;
18933;SDS011;9599;53.706;10.384;2022-11-06T11:48:44;3.70;;;2.13;;
18933;SDS011;9599;53.706;10.384;2022-11-06T11:51:26;3.27;;;2.00;;
18933;SDS011;9599;53.706;10.384;2022-11-06T11:53:59;2.20;;;2.00;;
18933;SDS011;9599;53.706;10.384;2022-11-06T11:56:30;2.23;;;1.80;;
18933;SDS011;9599;53.706;10.384;2022-11-06T11:59:19;2.73;;;2.00;;
18933;SDS011;9599;53.706;10.384;2022-11-06T12:01:49;3.63;;;2.07;;
18933;SDS011;9599;53.706;10.384;2022-11-06T12:04:20;4.07;;;2.10;;
18933;SDS011;9599;53.706;10.384;2022-11-06T12:06:53;2.53;;;1.67;;
18933;SDS011;9599;53.706;10.384;2022-11-06T12:09:25;3.33;;;1.73;;
18933;SDS011;9599;53.706;10.384;2022-11-06T12:11:55;3.43;;;1.80;;
18933;SDS011;9599;53.706;10.384;2022-11-06T12:14:27;1.93;;;1.80;;
18933;SDS011;9599;53.706;10.384;2022-11-06T12:16:59;4.03;;;2.10;;
18933;SDS011;9599;53.706;10.384;2022-11-06T12:19:32;4.13;;;1.80;;
18933;SDS011;9599;53.706;10.384;2022-11-06T12:22:04;3.00;;;1.70;;
18933;SDS011;9599;53.706;10.384;2022-11-06T12:24:40;2.83;;;1.70;;
18933;SDS011;9599;53.706;10.384;2022-11-06T12:27:13;2.33;;;1.80;;
18933;SDS011;9599;53.706;10.384;2022-11-06T12:29:46;3.53;;;1.43;;
18933;SDS011;9599;53.706;10.384;2022-11-06T12:32:22;2.90;;;2.07;;
18933;SDS011;9599;53.706;10.384;2022-11-06T12:35:00;3.73;;;1.70;;
18933;SDS011;9599;53.706;10.384;2022-11-06T12:37:37;3.27;;;1.70;;
18933;SDS011;9599;53.706;10.384;2022-11-06T12:40:17;4.07;;;2.00;;
18933;SDS011;9599;53.706;10.384;2022-11-06T12:42:57;5.53;;;2.20;;
18933;SDS011;9599;53.706;10.384;2022-11-06T12:45:34;2.40;;;1.80;;
18933;SDS011;9599;53.706;10.384;2022-11-06T12:48:12;3.67;;;1.90;;
18933;SDS011;9599;53.706;10.384;2022-11-06T12:50:54;3.47;;;1.90;;
18933;SDS011;9599;53.706;10.384;2022-11-06T12:53:32;3.83;;;1.97;;
18933;SDS011;9599;53.706;10.384;2022-11-06T12:56:13;5.50;;;2.03;;
18933;SDS011;9599;53.706;10.384;2022-11-06T12:58:54;3.53;;;1.70;;
18933;SDS011;9599;53.706;10.384;2022-11-06T13:01:41;2.93;;;1.83;;
18933;SDS011;9599;53.706;10.384;2022-11-06T13:04:20;3.73;;;2.07;;
18933;SDS011;9599;53.706;10.384;2022-11-06T13:10:11;3.90;;;2.30;;
18933;SDS011;9599;53.706;10.384;2022-11-06T13:12:53;2.67;;;2.00;;
18933;SDS011;9599;53.706;10.384;2022-11-06T13:15:30;3.87;;;2.00;;
18933;SDS011;9599;53.706;10.384;2022-11-06T13:18:05;2.63;;;1.93;;
18933;SDS011;9599;53.706;10.384;2022-11-06T13:20:42;3.70;;;2.00;;
18933;SDS011;9599;53.706;10.384;2022-11-06T13:23:17;4.10;;;1.70;;
18933;SDS011;9599;53.706;10.384;2022-11-06T13:25:52;3.00;;;1.90;;
18933;SDS011;9599;53.706;10.384;2022-11-06T13:28:28;3.50;;;2.20;;
18933;SDS011;9599;53.706;10.384;2022-11-06T13:31:00;3.70;;;1.80;;
18933;SDS011;9599;53.706;10.384;2022-11-06T13:33:31;2.30;;;1.80;;
18933;SDS011;9599;53.706;10.384;2022-11-06T13:36:04;3.77;;;1.80;;
18933;SDS011;9599;53.706;10.384;2022-11-06T13:38:35;3.47;;;2.23;;
18933;SDS011;9599;53.706;10.384;2022-11-06T13:41:06;2.70;;;2.30;;
18933;SDS011;9599;53.706;10.384;2022-11-06T13:43:41;3.37;;;2.20;;
18933;SDS011;9599;53.706;10.384;2022-11-06T13:46:14;4.17;;;2.07;;
18933;SDS011;9599;53.706;10.384;2022-11-06T13:48:52;3.60;;;2.43;;
18933;SDS011;9599;53.706;10.384;2022-11-06T13:51:32;3.23;;;2.10;;
18933;SDS011;9599;53.706;10.384;2022-11-06T13:54:09;2.57;;;2.00;;
18933;SDS011;9599;53.706;10.384;2022-11-06T13:56:54;2.87;;;2.07;;
18933;SDS011;9599;53.706;10.384;2022-11-06T14:02:40;4.57;;;2.63;;
18933;SDS011;9599;53.706;10.384;2022-11-06T14:05:39;4.00;;;2.60;;
18933;SDS011;9599;53.706;10.384;2022-11-06T14:08:13;4.73;;;2.57;;
18933;SDS011;9599;53.706;10.384;2022-11-06T14:10:46;4.60;;;2.60;;
18933;SDS011;9599;53.706;10.384;2022-11-06T14:13:20;5.80;;;2.50;;
18933;SDS011;9599;53.706;10.384;2022-11-06T14:16:00;4.23;;;2.57;;
18933;SDS011;9599;53.706;10.384;2022-11-06T14:18:30;4.77;;;3.07;;
18933;SDS011;9599;53.706;10.384;2022-11-06T14:24:13;3.63;;;2.30;;
18933;SDS011;9599;53.706;10.384;2022-11-06T14:26:57;3.07;;;2.43;;
18933;SDS011;9599;53.706;10.384;2022-11-06T14:32:37;4.80;;;2.70;;
18933;SDS011;9599;53.706;10.384;2022-11-06T14:38:15;4.20;;;2.50;;
18933;SDS011;9599;53.706;10.384;2022-11-06T14:44:16;4.20;;;2.70;;
18933;SDS011;9599;53.706;10.384;2022-11-06T14:46:57;3.20;;;2.63;;
18933;SDS011;9599;53.706;10.384;2022-11-06T14:49:32;3.70;;;2.70;;
18933;SDS011;9599;53.706;10.384;2022-11-06T14:52:04;4.77;;;2.70;;
18933;SDS011;9599;53.706;10.384;2022-11-06T14:54:35;4.10;;;2.70;;
18933;SDS011;9599;53.706;10.384;2022-11-06T14:57:05;3.73;;;2.50;;
18933;SDS011;9599;53.706;10.384;2022-11-06T14:59:36;3.43;;;2.63;;
18933;SDS011;9599;53.706;10.384;2022-11-06T15:02:10;5.70;;;2.80;;
18933;SDS011;9599;53.706;10.384;2022-11-06T15:04:46;4.67;;;3.10;;
18933;SDS011;9599;53.706;10.384;2022-11-06T15:07:25;3.93;;;3.00;;
18933;SDS011;9599;53.706;10.384;2022-11-06T15:13:23;4.27;;;2.63;;
18933;SDS011;9599;53.706;10.384;2022-11-06T15:15:56;3.60;;;2.70;;
18933;SDS011;9599;53.706;10.384;2022-11-06T15:18:29;3.90;;;2.50;;
18933;SDS011;9599;53.706;10.384;2022-11-06T15:21:03;3.40;;;2.67;;
18933;SDS011;9599;53.706;10.384;2022-11-06T15:23:38;4.00;;;3.00;;
18933;SDS011;9599;53.706;10.384;2022-11-06T15:26:14;4.67;;;2.70;;
18933;SDS011;9599;53.706;10.384;2022-11-06T15:28:49;3.30;;;2.47;;
18933;SDS011;9599;53.706;10.384;2022-11-06T15:31:28;3.83;;;2.60;;
18933;SDS011;9599;53.706;10.384;2022-11-06T15:33:59;3.57;;;2.50;;
18933;SDS011;9599;53.706;10.384;2022-11-06T15:36:33;2.67;;;2.47;;
18933;SDS011;9599;53.706;10.384;2022-11-06T15:41:48;4.40;;;2.47;;
18933;SDS011;9599;53.706;10.384;2022-11-06T15:44:17;5.47;;;2.60;;
18933;SDS011;9599;53.706;10.384;2022-11-06T15:46:52;3.07;;;2.50;;
18933;SDS011;9599;53.706;10.384;2022-11-06T15:49:20;4.93;;;2.60;;
18933;SDS011;9599;53.706;10.384;2022-11-06T15:51:50;4.23;;;2.60;;